logo
Search for airport 
image banner adimage banner adimage banner ad
image banner ad

YSPGV - Springvale Station

Located in Mistake Creek, Australia

ICAO - , IATA -

Data provided by Airmate  

General information

Coordinates: S22°46'31" E146°58'5"
Elevation is 1005 feet MSL.
Magnetic variation is 8° East
View others Airports in Queensland

Operational data

Special qualification required
Current time UTC:
Current local time:
Weather at : - ( 0 km )
METAR: KSAR 281223Z AUTO 30015G23KT 10SM OVC022 M01/M04 A2991 RMK AO2
View NOTAMs / SUP AIP / TFR affecting this airport [VIEW]
Communications frequencies: [VIEW]

Runways:

RWY identifierQFULength (ft)Width (ft)SurfaceLDA (ft)
35356°322173DIRT
17176°322173DIRT

Airport contact information

Address: Mistake Creek Australia

Satellite view of YSPGV